createdAt,value
2019-02-20T09:18:11.997Z,99.10
2019-02-20T09:20:41.462Z,97.00
2019-02-20T09:23:10.939Z,97.00
2019-02-20T09:25:41.842Z,96.80
2019-02-20T09:28:11.403Z,97.20
2019-02-20T09:30:40.879Z,97.10
2019-02-20T09:33:10.607Z,96.70
2019-02-20T09:35:40.087Z,96.50
2019-02-20T09:38:10.539Z,96.40
2019-02-20T09:40:42.787Z,96.50
2019-02-20T09:43:12.750Z,96.40
2019-02-20T09:45:44.453Z,96.80
2019-02-20T09:48:13.662Z,96.60
2019-02-20T09:50:43.112Z,96.50
2019-02-20T09:53:12.785Z,96.60
2019-02-20T09:55:50.947Z,95.70
2019-02-20T09:58:13.443Z,95.20
2019-02-20T10:00:43.004Z,95.40
2019-02-20T10:03:13.582Z,95.10
2019-02-20T10:05:42.987Z,94.80
2019-02-20T10:08:12.657Z,95.10
2019-02-20T10:10:44.130Z,95.10
2019-02-20T10:13:14.687Z,95.20
2019-02-20T10:15:44.171Z,95.20
2019-02-20T10:18:14.714Z,95.60
2019-02-20T10:20:44.556Z,95.50
2019-02-20T10:23:14.025Z,95.20
2019-02-20T10:25:44.481Z,95.10
2019-02-20T10:28:13.943Z,95.20
2019-02-20T10:30:43.309Z,95.10
2019-02-20T10:33:13.145Z,95.40
2019-02-20T10:35:42.620Z,95.40
2019-02-20T10:38:12.126Z,95.10
2019-02-20T10:40:41.650Z,94.90
2019-02-20T10:43:11.480Z,94.90
2019-02-20T10:45:40.829Z,94.80
2019-02-20T10:48:10.228Z,95.10
2019-02-20T10:50:39.637Z,94.50
2019-02-20T10:53:09.011Z,94.20
2019-02-20T10:55:38.639Z,94.20
2019-02-20T10:58:08.948Z,93.70
2019-02-20T11:00:38.420Z,93.70
2019-02-20T11:03:07.878Z,94.00
2019-02-20T11:05:37.293Z,93.90
2019-02-20T11:08:07.126Z,93.70
2019-02-20T11:10:36.579Z,93.50
2019-02-20T11:13:06.049Z,93.40
2019-02-20T11:15:35.479Z,93.60
2019-02-20T11:18:04.895Z,93.30
2019-02-20T11:20:34.367Z,93.10
2019-02-20T11:23:04.013Z,92.90
2019-02-20T11:25:33.546Z,93.00
2019-02-20T11:28:03.018Z,93.30
2019-02-20T11:30:32.431Z,93.00
2019-02-20T11:33:03.404Z,92.60
2019-02-20T11:35:33.090Z,92.30
2019-02-20T11:38:02.542Z,92.80
2019-02-20T11:40:32.072Z,92.70
2019-02-20T11:43:01.536Z,92.90
2019-02-20T11:45:31.220Z,92.70
2019-02-20T11:48:00.842Z,93.10
2019-02-20T11:50:30.309Z,92.90
2019-02-20T11:52:59.762Z,92.90
2019-02-20T11:55:29.230Z,92.70
2019-02-20T11:58:00.834Z,93.00
2019-02-20T12:00:29.830Z,93.30
2019-02-20T12:02:59.317Z,93.20
2019-02-20T12:05:28.707Z,93.20
2019-02-20T12:07:58.162Z,93.40
2019-02-20T12:10:27.681Z,93.50
2019-02-20T12:12:57.156Z,93.40
2019-02-20T12:15:26.591Z,93.30
2019-02-20T12:17:56.093Z,93.50
2019-02-20T12:20:25.555Z,93.70
2019-02-20T12:22:55.007Z,93.60
2019-02-20T12:25:24.613Z,93.50
2019-02-20T12:27:54.014Z,93.50
2019-02-20T12:30:23.531Z,93.80
2019-02-20T12:32:53.294Z,93.50
2019-02-20T12:35:22.745Z,93.40
2019-02-20T12:37:52.159Z,93.40
2019-02-20T12:40:21.692Z,93.70
2019-02-20T12:42:51.158Z,93.50
2019-02-20T12:45:20.618Z,93.30
2019-02-20T12:47:49.999Z,93.20
2019-02-20T12:50:19.493Z,93.50
2019-02-20T12:52:49.047Z,93.30
2019-02-20T12:55:18.664Z,93.30
2019-02-20T12:57:48.234Z,93.50
2019-02-20T13:00:18.466Z,93.60
2019-02-20T13:03:06.922Z,93.60
2019-02-20T13:05:36.427Z,93.40
2019-02-20T13:08:05.780Z,93.70
2019-02-20T13:10:35.298Z,93.60
2019-02-20T13:13:04.905Z,93.50
2019-02-20T13:15:34.375Z,93.40
2019-02-20T13:18:03.908Z,93.50
2019-02-20T13:20:33.404Z,93.70
2019-02-20T13:23:02.845Z,93.50
2019-02-20T13:25:32.355Z,93.30
2019-02-20T13:28:02.141Z,93.40
2019-02-20T13:30:31.630Z,93.50
2019-02-20T13:33:02.549Z,93.30
2019-02-20T13:35:32.139Z,93.00
2019-02-20T13:38:01.574Z,92.80
2019-02-20T13:40:31.062Z,93.10
2019-02-20T13:43:00.485Z,93.00
2019-02-20T13:45:29.941Z,92.80
2019-02-20T13:47:59.434Z,92.60
2019-02-20T13:50:28.915Z,92.70
2019-02-20T13:52:58.427Z,92.80
2019-02-20T13:55:34.200Z,92.70
2019-02-20T13:57:59.050Z,92.70
2019-02-20T14:00:28.548Z,92.90
2019-02-20T14:02:58.045Z,93.10
2019-02-20T14:05:27.581Z,93.10
2019-02-20T14:07:57.016Z,93.10
2019-02-20T14:10:26.524Z,93.00
2019-02-20T14:12:56.033Z,93.20
2019-02-20T14:15:25.504Z,93.20
2019-02-20T14:17:54.992Z,93.30
2019-02-20T14:20:24.680Z,93.20
2019-02-20T14:22:54.160Z,93.30
2019-02-20T14:25:23.674Z,93.50
2019-02-20T14:27:53.125Z,94.00
2019-02-20T14:30:22.988Z,93.80
2019-02-20T14:32:52.485Z,93.80
2019-02-20T14:35:22.372Z,93.80
2019-02-20T14:37:51.828Z,93.80
2019-02-20T14:40:21.653Z,93.80
2019-02-20T14:42:51.099Z,93.40
2019-02-20T14:45:20.505Z,93.20
2019-02-20T14:47:50.110Z,93.40
2019-02-20T14:50:19.960Z,93.70
2019-02-20T14:52:49.462Z,93.70
2019-02-20T14:55:18.917Z,94.20
2019-02-20T14:57:48.348Z,94.20
2019-02-20T15:00:17.898Z,94.50
2019-02-20T15:02:47.411Z,94.70
2019-02-20T15:05:17.355Z,94.70
2019-02-20T15:07:46.801Z,94.80
2019-02-20T15:10:16.300Z,94.90
2019-02-20T15:12:46.684Z,95.00
2019-02-20T15:15:16.151Z,94.90
2019-02-20T15:17:45.841Z,95.10
2019-02-20T15:20:15.630Z,94.80
2019-02-20T15:22:45.115Z,95.00
2019-02-20T15:25:14.709Z,95.10
2019-02-20T15:27:44.189Z,95.20
2019-02-20T15:30:13.991Z,95.30
2019-02-20T15:32:43.594Z,95.50
2019-02-20T15:35:13.649Z,95.70
2019-02-20T15:37:43.127Z,95.80
2019-02-20T15:40:12.755Z,95.80
2019-02-20T15:42:42.229Z,96.00
2019-02-20T15:45:11.848Z,96.00
2019-02-20T15:47:41.325Z,96.10
2019-02-20T15:50:11.407Z,96.20
2019-02-20T15:52:40.916Z,96.10
2019-02-20T15:55:11.384Z,96.10
2019-02-20T15:57:41.027Z,96.10
2019-02-20T16:00:12.175Z,96.10
2019-02-20T16:02:43.354Z,96.20
2019-02-20T16:05:14.779Z,96.30
2019-02-20T16:07:45.534Z,96.30
2019-02-20T16:10:15.097Z,96.50
2019-02-20T16:12:46.186Z,96.50
2019-02-20T16:15:15.992Z,96.60
2019-02-20T16:17:47.142Z,96.60
2019-02-20T16:20:16.865Z,96.70
2019-02-20T16:22:47.943Z,96.80
2019-02-20T16:25:17.463Z,96.90
2019-02-20T16:27:47.778Z,97.30
2019-02-20T16:30:17.356Z,97.30
2019-02-20T16:32:46.923Z,97.40
2019-02-20T16:35:17.287Z,97.50
2019-02-20T16:37:46.774Z,97.50
2019-02-20T16:40:16.676Z,97.50
2019-02-20T16:42:46.162Z,97.50
2019-02-20T16:45:23.436Z,97.50
2019-02-20T16:47:53.365Z,97.60
2019-02-20T16:50:22.850Z,97.60
2019-02-20T16:52:52.370Z,97.70
2019-02-20T16:55:22.687Z,97.60
2019-02-20T16:57:56.573Z,97.60
2019-02-20T17:00:24.042Z,97.60
2019-02-20T17:02:53.936Z,97.60
2019-02-20T17:05:23.554Z,97.60
2019-02-20T17:07:53.050Z,97.60
2019-02-20T17:10:22.544Z,97.60
2019-02-20T17:12:52.136Z,97.70
2019-02-20T17:32:45.891Z,97.70
2019-02-20T17:35:17.205Z,97.90
2019-02-20T17:37:47.520Z,97.90
2019-02-20T17:40:17.304Z,97.90
2019-02-20T17:42:46.808Z,98.00
2019-02-20T17:45:17.137Z,97.90
2019-02-20T17:47:46.871Z,98.00
2019-02-20T17:50:16.732Z,98.00
2019-02-20T17:52:46.267Z,98.00
2019-02-20T17:55:15.718Z,98.00
2019-02-20T18:12:42.318Z,98.00
2019-02-20T18:15:12.018Z,98.10
2019-02-20T18:17:41.382Z,98.10
2019-02-20T18:20:10.912Z,98.00
2019-02-20T18:22:40.514Z,98.00
2019-02-20T18:25:10.137Z,98.10
2019-02-20T18:27:39.609Z,98.10
2019-02-20T18:30:09.151Z,98.00
2019-02-20T18:32:38.576Z,98.10
2019-02-20T18:35:08.928Z,98.10
2019-02-20T18:37:38.472Z,98.20
2019-02-20T18:40:08.858Z,98.30
2019-02-20T18:42:38.218Z,98.30
2019-02-20T18:45:09.366Z,98.30
2019-02-20T18:47:38.880Z,98.30
2019-02-20T18:50:09.310Z,98.20
2019-02-20T18:52:38.840Z,98.20
2019-02-20T18:55:09.263Z,98.20
2019-02-20T18:57:38.715Z,98.40
2019-02-20T19:00:11.296Z,98.40
2019-02-20T19:02:40.788Z,98.50
2019-02-20T19:05:10.807Z,98.50
2019-02-20T19:07:40.303Z,98.50
2019-02-20T19:10:13.744Z,98.50
2019-02-20T19:13:09.058Z,98.60
2019-02-20T19:16:02.183Z,98.60
2019-02-20T19:19:12.926Z,98.60
2019-02-20T19:22:24.787Z,98.60
2019-02-20T19:25:32.273Z,98.70
2019-02-20T19:28:18.809Z,98.70
2019-02-20T19:31:26.732Z,98.70
2019-02-20T19:34:21.280Z,98.70
2019-02-20T19:37:24.089Z,98.80
2019-02-20T19:40:17.732Z,98.80
2019-02-20T19:43:28.923Z,98.80
2019-02-20T19:46:45.151Z,98.80
2019-02-20T19:50:03.726Z,98.80
2019-02-20T19:53:05.098Z,98.80
2019-02-20T19:56:03.532Z,98.90
2019-02-20T19:59:16.102Z,98.90
2019-02-20T20:02:07.797Z,99.00
2019-02-20T20:05:04.319Z,99.00
2019-02-20T20:08:02.304Z,99.00
2019-02-20T20:11:10.775Z,99.10
2019-02-20T20:14:23.540Z,99.00
2019-02-20T20:17:23.937Z,99.10
2019-02-20T20:20:24.968Z,99.40
2019-02-20T20:23:21.634Z,99.20
2019-02-20T20:26:15.208Z,99.20
2019-02-20T20:29:28.896Z,99.20
2019-02-20T20:32:52.585Z,99.10
2019-02-20T20:35:40.117Z,99.50
2019-02-20T20:38:43.351Z,99.60
2019-02-20T20:41:52.856Z,99.60
2019-02-20T20:44:55.383Z,99.60
2019-02-20T20:48:11.586Z,99.60
2019-02-20T20:51:06.578Z,99.70
2019-02-20T20:54:16.147Z,99.80
2019-02-20T20:57:15.937Z,99.90
2019-02-20T21:00:20.781Z,99.90
2019-02-20T21:02:55.731Z,99.90
2019-02-20T21:05:48.332Z,99.90
2019-02-20T21:08:44.711Z,99.90
2019-02-20T21:11:48.272Z,99.90
2019-02-20T21:14:49.658Z,99.90
2019-02-20T21:17:57.512Z,99.90
2019-02-20T21:21:18.674Z,99.90
2019-02-20T21:24:25.058Z,99.90
2019-02-20T21:27:04.286Z,99.90
2019-02-20T21:30:03.504Z,99.90
2019-02-20T21:33:29.164Z,99.90
2019-02-20T21:36:24.344Z,99.90
2019-02-20T21:39:37.999Z,99.90
2019-02-20T21:42:40.586Z,99.90
2019-02-20T21:45:25.792Z,99.90
2019-02-20T21:48:34.915Z,99.90
2019-02-20T21:51:35.527Z,99.90
2019-02-20T21:54:32.659Z,99.90
2019-02-20T21:57:19.608Z,99.90
2019-02-20T22:00:27.771Z,99.90
2019-02-20T22:03:20.301Z,99.90
2019-02-20T22:05:58.677Z,99.90
2019-02-20T22:09:09.780Z,99.90
2019-02-20T22:12:18.930Z,99.90
2019-02-20T22:15:38.032Z,99.90
2019-02-20T22:18:34.792Z,99.90
2019-02-20T22:21:39.688Z,99.90
2019-02-20T22:24:23.632Z,99.90
2019-02-20T22:27:24.903Z,99.90
2019-02-20T22:30:24.524Z,99.90
2019-02-20T22:33:09.661Z,99.90
2019-02-20T22:55:29.988Z,99.90
2019-02-20T22:58:19.053Z,99.90
2019-02-20T23:01:31.974Z,99.90
2019-02-20T23:04:31.963Z,99.90
2019-02-20T23:07:41.701Z,99.90
2019-02-20T23:10:54.013Z,99.90
2019-02-20T23:14:13.697Z,99.90
2019-02-20T23:16:44.564Z,99.90
2019-02-20T23:19:14.121Z,99.90
2019-02-20T23:21:43.538Z,99.90
2019-02-20T23:24:13.194Z,99.90
2019-02-20T23:26:42.677Z,99.90
2019-02-20T23:29:12.142Z,99.90
2019-02-20T23:31:41.549Z,99.90
2019-02-20T23:34:10.870Z,99.90
2019-02-20T23:36:40.342Z,99.90
2019-02-20T23:39:10.063Z,99.90
2019-02-20T23:41:39.495Z,99.90
2019-02-20T23:44:08.920Z,99.90
2019-02-20T23:46:38.314Z,99.90
2019-02-20T23:49:08.176Z,99.90
2019-02-20T23:51:37.616Z,99.90
2019-02-20T23:54:06.960Z,99.90
2019-02-20T23:56:36.315Z,99.90
2019-02-20T23:59:05.988Z,99.90
